sensor_id;sensor_type;location;lat;lon;timestamp;temperature;humidity
18721;DHT22;9489;50.948;3.114;2023-04-03T00:01:11;3.70;99.90
18721;DHT22;9489;50.948;3.114;2023-04-03T00:03:37;3.60;99.90
18721;DHT22;9489;50.948;3.114;2023-04-03T00:06:04;3.70;99.90
18721;DHT22;9489;50.948;3.114;2023-04-03T00:08:32;3.60;99.90
18721;DHT22;9489;50.948;3.114;2023-04-03T00:10:58;3.60;99.90
18721;DHT22;9489;50.948;3.114;2023-04-03T00:13:23;3.60;99.90
18721;DHT22;9489;50.948;3.114;2023-04-03T00:15:49;3.60;99.90
18721;DHT22;9489;50.948;3.114;2023-04-03T00:18:15;3.60;99.90
18721;DHT22;9489;50.948;3.114;2023-04-03T00:20:40;3.60;99.90
18721;DHT22;9489;50.948;3.114;2023-04-03T00:23:06;3.60;99.90
18721;DHT22;9489;50.948;3.114;2023-04-03T00:25:32;3.60;99.90
18721;DHT22;9489;50.948;3.114;2023-04-03T00:27:57;3.60;99.90
18721;DHT22;9489;50.948;3.114;2023-04-03T00:30:23;3.50;99.90
18721;DHT22;9489;50.948;3.114;2023-04-03T00:32:50;3.50;99.90
18721;DHT22;9489;50.948;3.114;2023-04-03T00:35:18;3.60;99.90
18721;DHT22;9489;50.948;3.114;2023-04-03T00:37:44;3.60;99.90
18721;DHT22;9489;50.948;3.114;2023-04-03T00:40:12;3.50;99.90
18721;DHT22;9489;50.948;3.114;2023-04-03T00:42:39;3.50;99.90
18721;DHT22;9489;50.948;3.114;2023-04-03T00:47:31;3.40;99.90
18721;DHT22;9489;50.948;3.114;2023-04-03T00:49:57;3.30;99.90
18721;DHT22;9489;50.948;3.114;2023-04-03T00:52:27;3.40;99.90
18721;DHT22;9489;50.948;3.114;2023-04-03T00:54:54;3.40;99.90
18721;DHT22;9489;50.948;3.114;2023-04-03T00:57:22;3.40;99.90
18721;DHT22;9489;50.948;3.114;2023-04-03T00:59:52;3.30;99.90
18721;DHT22;9489;50.948;3.114;2023-04-03T01:02:19;3.30;99.90
18721;DHT22;9489;50.948;3.114;2023-04-03T01:04:45;3.30;99.90
18721;DHT22;9489;50.948;3.114;2023-04-03T01:07:16;3.30;99.90
18721;DHT22;9489;50.948;3.114;2023-04-03T01:09:43;3.30;99.90
18721;DHT22;9489;50.948;3.114;2023-04-03T01:12:29;3.20;99.90
18721;DHT22;9489;50.948;3.114;2023-04-03T01:14:58;3.20;99.90
18721;DHT22;9489;50.948;3.114;2023-04-03T01:25:34;3.10;99.90
18721;DHT22;9489;50.948;3.114;2023-04-03T01:28:02;3.10;99.90
18721;DHT22;9489;50.948;3.114;2023-04-03T01:30:32;3.10;99.90
18721;DHT22;9489;50.948;3.114;2023-04-03T01:32:58;3.10;99.90
18721;DHT22;9489;50.948;3.114;2023-04-03T01:35:24;3.10;99.90
18721;DHT22;9489;50.948;3.114;2023-04-03T01:37:50;3.10;99.90
18721;DHT22;9489;50.948;3.114;2023-04-03T01:40:15;3.10;99.90
18721;DHT22;9489;50.948;3.114;2023-04-03T01:42:41;3.10;99.90
18721;DHT22;9489;50.948;3.114;2023-04-03T01:45:07;3.10;99.90
18721;DHT22;9489;50.948;3.114;2023-04-03T01:47:33;3.10;99.90
18721;DHT22;9489;50.948;3.114;2023-04-03T01:49:58;3.10;99.90
18721;DHT22;9489;50.948;3.114;2023-04-03T01:52:24;3.10;99.90
18721;DHT22;9489;50.948;3.114;2023-04-03T01:54:49;3.00;99.90
18721;DHT22;9489;50.948;3.114;2023-04-03T01:57:16;3.00;99.90
18721;DHT22;9489;50.948;3.114;2023-04-03T01:59:42;3.00;99.90
18721;DHT22;9489;50.948;3.114;2023-04-03T02:02:07;3.00;99.90
18721;DHT22;9489;50.948;3.114;2023-04-03T02:04:33;3.00;99.90
18721;DHT22;9489;50.948;3.114;2023-04-03T02:06:58;2.90;99.90
18721;DHT22;9489;50.948;3.114;2023-04-03T02:09:24;2.90;99.90
18721;DHT22;9489;50.948;3.114;2023-04-03T02:11:49;3.00;99.90
18721;DHT22;9489;50.948;3.114;2023-04-03T02:14:15;3.00;99.90
18721;DHT22;9489;50.948;3.114;2023-04-03T02:16:41;3.00;99.90
18721;DHT22;9489;50.948;3.114;2023-04-03T02:19:06;3.00;99.90
18721;DHT22;9489;50.948;3.114;2023-04-03T02:21:32;3.00;99.90
18721;DHT22;9489;50.948;3.114;2023-04-03T02:23:58;2.90;99.90
18721;DHT22;9489;50.948;3.114;2023-04-03T02:26:24;3.00;99.90
18721;DHT22;9489;50.948;3.114;2023-04-03T02:28:50;3.00;99.90
18721;DHT22;9489;50.948;3.114;2023-04-03T02:31:16;2.90;99.90
18721;DHT22;9489;50.948;3.114;2023-04-03T02:33:41;2.90;99.90
18721;DHT22;9489;50.948;3.114;2023-04-03T02:36:08;2.80;99.90
18721;DHT22;9489;50.948;3.114;2023-04-03T02:38:34;2.80;99.90
18721;DHT22;9489;50.948;3.114;2023-04-03T02:41:05;2.80;99.90
18721;DHT22;9489;50.948;3.114;2023-04-03T02:43:31;2.80;99.90
18721;DHT22;9489;50.948;3.114;2023-04-03T02:45:57;2.80;99.90
18721;DHT22;9489;50.948;3.114;2023-04-03T02:48:23;2.80;99.90
18721;DHT22;9489;50.948;3.114;2023-04-03T02:50:49;2.80;99.90
18721;DHT22;9489;50.948;3.114;2023-04-03T02:53:15;2.80;99.90
18721;DHT22;9489;50.948;3.114;2023-04-03T02:55:41;2.80;99.90
18721;DHT22;9489;50.948;3.114;2023-04-03T02:58:07;2.80;99.90
18721;DHT22;9489;50.948;3.114;2023-04-03T03:00:33;2.80;99.90
18721;DHT22;9489;50.948;3.114;2023-04-03T03:02:59;2.80;99.90
18721;DHT22;9489;50.948;3.114;2023-04-03T03:05:25;2.90;99.90
18721;DHT22;9489;50.948;3.114;2023-04-03T03:07:51;2.90;99.90
18721;DHT22;9489;50.948;3.114;2023-04-03T03:10:16;3.00;99.90
18721;DHT22;9489;50.948;3.114;2023-04-03T03:12:42;2.90;99.90
18721;DHT22;9489;50.948;3.114;2023-04-03T03:15:07;2.90;99.90
18721;DHT22;9489;50.948;3.114;2023-04-03T03:17:33;2.90;99.90
18721;DHT22;9489;50.948;3.114;2023-04-03T03:19:59;2.90;99.90
18721;DHT22;9489;50.948;3.114;2023-04-03T03:22:26;2.90;99.90
18721;DHT22;9489;50.948;3.114;2023-04-03T03:24:51;2.90;99.90
18721;DHT22;9489;50.948;3.114;2023-04-03T03:27:17;2.90;99.90
18721;DHT22;9489;50.948;3.114;2023-04-03T03:29:42;2.90;99.90
18721;DHT22;9489;50.948;3.114;2023-04-03T03:32:08;2.80;99.90
18721;DHT22;9489;50.948;3.114;2023-04-03T03:34:34;2.90;99.90
18721;DHT22;9489;50.948;3.114;2023-04-03T03:37:00;2.80;99.90
18721;DHT22;9489;50.948;3.114;2023-04-03T03:39:25;2.80;99.90
18721;DHT22;9489;50.948;3.114;2023-04-03T03:41:51;2.80;99.90
18721;DHT22;9489;50.948;3.114;2023-04-03T03:44:19;2.80;99.90
18721;DHT22;9489;50.948;3.114;2023-04-03T03:46:44;2.80;99.90
18721;DHT22;9489;50.948;3.114;2023-04-03T03:49:10;2.70;99.90
18721;DHT22;9489;50.948;3.114;2023-04-03T03:51:36;2.80;99.90
18721;DHT22;9489;50.948;3.114;2023-04-03T03:54:03;2.80;99.90
18721;DHT22;9489;50.948;3.114;2023-04-03T03:56:29;2.80;99.90
18721;DHT22;9489;50.948;3.114;2023-04-03T03:58:54;2.80;99.90
18721;DHT22;9489;50.948;3.114;2023-04-03T04:01:21;2.90;99.90
18721;DHT22;9489;50.948;3.114;2023-04-03T04:03:47;2.90;99.90
18721;DHT22;9489;50.948;3.114;2023-04-03T04:06:13;3.00;99.90
18721;DHT22;9489;50.948;3.114;2023-04-03T04:08:39;3.00;99.90
18721;DHT22;9489;50.948;3.114;2023-04-03T04:11:05;3.10;99.90
18721;DHT22;9489;50.948;3.114;2023-04-03T04:13:30;3.10;99.90
18721;DHT22;9489;50.948;3.114;2023-04-03T04:15:56;3.10;99.90
18721;DHT22;9489;50.948;3.114;2023-04-03T04:18:22;3.10;99.90
18721;DHT22;9489;50.948;3.114;2023-04-03T04:20:48;3.10;99.90
18721;DHT22;9489;50.948;3.114;2023-04-03T04:23:14;3.10;99.90
18721;DHT22;9489;50.948;3.114;2023-04-03T04:25:40;3.10;99.90
18721;DHT22;9489;50.948;3.114;2023-04-03T04:28:05;3.10;99.90
18721;DHT22;9489;50.948;3.114;2023-04-03T04:30:31;3.00;99.90
18721;DHT22;9489;50.948;3.114;2023-04-03T04:32:57;3.00;99.90
18721;DHT22;9489;50.948;3.114;2023-04-03T04:35:22;3.00;99.90
18721;DHT22;9489;50.948;3.114;2023-04-03T04:37:48;3.10;99.90
18721;DHT22;9489;50.948;3.114;2023-04-03T04:40:13;3.00;99.90
18721;DHT22;9489;50.948;3.114;2023-04-03T04:42:39;3.10;99.90
18721;DHT22;9489;50.948;3.114;2023-04-03T04:45:05;3.10;99.90
18721;DHT22;9489;50.948;3.114;2023-04-03T04:47:31;3.00;99.90
18721;DHT22;9489;50.948;3.114;2023-04-03T04:49:57;3.00;99.90
18721;DHT22;9489;50.948;3.114;2023-04-03T04:52:22;3.00;99.90
18721;DHT22;9489;50.948;3.114;2023-04-03T04:54:48;3.00;99.90
18721;DHT22;9489;50.948;3.114;2023-04-03T04:57:13;3.00;99.90
18721;DHT22;9489;50.948;3.114;2023-04-03T04:59:39;3.10;99.90
18721;DHT22;9489;50.948;3.114;2023-04-03T05:02:04;3.10;99.90
18721;DHT22;9489;50.948;3.114;2023-04-03T05:04:30;3.10;99.90
18721;DHT22;9489;50.948;3.114;2023-04-03T05:06:55;3.10;99.90
18721;DHT22;9489;50.948;3.114;2023-04-03T05:09:21;3.10;99.90
18721;DHT22;9489;50.948;3.114;2023-04-03T05:11:46;3.20;99.90
18721;DHT22;9489;50.948;3.114;2023-04-03T05:14:12;3.20;99.90
18721;DHT22;9489;50.948;3.114;2023-04-03T05:16:38;3.20;99.90
18721;DHT22;9489;50.948;3.114;2023-04-03T05:19:04;3.20;99.90
18721;DHT22;9489;50.948;3.114;2023-04-03T05:21:30;3.20;99.90
18721;DHT22;9489;50.948;3.114;2023-04-03T05:24:01;3.20;99.90
18721;DHT22;9489;50.948;3.114;2023-04-03T05:26:29;3.20;99.90
18721;DHT22;9489;50.948;3.114;2023-04-03T05:28:55;3.20;99.90
18721;DHT22;9489;50.948;3.114;2023-04-03T05:31:20;3.20;99.90
18721;DHT22;9489;50.948;3.114;2023-04-03T05:33:46;3.20;99.90
18721;DHT22;9489;50.948;3.114;2023-04-03T05:36:12;3.20;99.90
18721;DHT22;9489;50.948;3.114;2023-04-03T05:38:38;3.30;99.90
18721;DHT22;9489;50.948;3.114;2023-04-03T05:41:05;3.30;99.90
18721;DHT22;9489;50.948;3.114;2023-04-03T05:43:31;3.40;99.90
18721;DHT22;9489;50.948;3.114;2023-04-03T05:45:56;3.40;99.90
18721;DHT22;9489;50.948;3.114;2023-04-03T05:48:22;3.50;99.90
18721;DHT22;9489;50.948;3.114;2023-04-03T05:50:47;3.50;99.90
18721;DHT22;9489;50.948;3.114;2023-04-03T05:53:21;3.50;99.90
18721;DHT22;9489;50.948;3.114;2023-04-03T05:55:47;3.50;99.90
18721;DHT22;9489;50.948;3.114;2023-04-03T05:58:13;3.60;99.90
18721;DHT22;9489;50.948;3.114;2023-04-03T06:00:39;3.60;99.90
18721;DHT22;9489;50.948;3.114;2023-04-03T06:03:05;3.60;99.90
18721;DHT22;9489;50.948;3.114;2023-04-03T06:05:31;3.70;99.90
18721;DHT22;9489;50.948;3.114;2023-04-03T06:07:57;3.90;99.90
18721;DHT22;9489;50.948;3.114;2023-04-03T06:10:23;4.10;99.90
18721;DHT22;9489;50.948;3.114;2023-04-03T06:12:48;4.50;99.90
18721;DHT22;9489;50.948;3.114;2023-04-03T06:15:14;4.90;99.90
18721;DHT22;9489;50.948;3.114;2023-04-03T06:17:40;5.40;99.90
18721;DHT22;9489;50.948;3.114;2023-04-03T06:20:06;5.80;99.90
18721;DHT22;9489;50.948;3.114;2023-04-03T06:22:31;6.10;99.90
18721;DHT22;9489;50.948;3.114;2023-04-03T06:24:57;6.30;99.90
18721;DHT22;9489;50.948;3.114;2023-04-03T06:27:23;6.60;99.90
18721;DHT22;9489;50.948;3.114;2023-04-03T06:29:48;6.90;99.90
18721;DHT22;9489;50.948;3.114;2023-04-03T06:32:15;7.00;99.90
18721;DHT22;9489;50.948;3.114;2023-04-03T06:34:41;7.10;99.90
18721;DHT22;9489;50.948;3.114;2023-04-03T06:37:16;7.30;99.90
18721;DHT22;9489;50.948;3.114;2023-04-03T06:39:42;7.50;99.90
18721;DHT22;9489;50.948;3.114;2023-04-03T06:42:08;7.70;99.90
18721;DHT22;9489;50.948;3.114;2023-04-03T06:44:34;8.10;99.90
18721;DHT22;9489;50.948;3.114;2023-04-03T06:47:00;8.60;99.90
18721;DHT22;9489;50.948;3.114;2023-04-03T06:49:25;9.00;99.90
18721;DHT22;9489;50.948;3.114;2023-04-03T06:51:51;9.30;99.90
18721;DHT22;9489;50.948;3.114;2023-04-03T06:54:17;9.50;99.90
18721;DHT22;9489;50.948;3.114;2023-04-03T06:56:43;9.70;99.90
18721;DHT22;9489;50.948;3.114;2023-04-03T06:59:10;10.10;99.90
18721;DHT22;9489;50.948;3.114;2023-04-03T07:01:38;10.50;99.90
18721;DHT22;9489;50.948;3.114;2023-04-03T07:04:03;10.70;99.90
18721;DHT22;9489;50.948;3.114;2023-04-03T07:06:29;10.80;99.90
18721;DHT22;9489;50.948;3.114;2023-04-03T07:08:56;10.90;99.90
18721;DHT22;9489;50.948;3.114;2023-04-03T07:11:22;11.30;99.90
18721;DHT22;9489;50.948;3.114;2023-04-03T07:13:48;11.60;99.90
18721;DHT22;9489;50.948;3.114;2023-04-03T07:16:13;11.70;99.90
18721;DHT22;9489;50.948;3.114;2023-04-03T07:18:39;11.90;99.90
18721;DHT22;9489;50.948;3.114;2023-04-03T07:21:04;11.80;99.90
18721;DHT22;9489;50.948;3.114;2023-04-03T07:23:30;11.60;99.90
18721;DHT22;9489;50.948;3.114;2023-04-03T07:25:56;11.60;99.90
18721;DHT22;9489;50.948;3.114;2023-04-03T07:28:22;11.70;99.90
18721;DHT22;9489;50.948;3.114;2023-04-03T07:30:53;11.70;99.90
18721;DHT22;9489;50.948;3.114;2023-04-03T07:33:20;12.00;99.90
18721;DHT22;9489;50.948;3.114;2023-04-03T07:35:47;12.40;99.90
18721;DHT22;9489;50.948;3.114;2023-04-03T07:38:12;12.30;99.90
18721;DHT22;9489;50.948;3.114;2023-04-03T07:40:38;12.10;99.90
18721;DHT22;9489;50.948;3.114;2023-04-03T07:43:04;12.50;99.90
18721;DHT22;9489;50.948;3.114;2023-04-03T07:45:30;12.90;99.90
18721;DHT22;9489;50.948;3.114;2023-04-03T07:47:56;13.00;99.90
18721;DHT22;9489;50.948;3.114;2023-04-03T07:50:22;13.10;99.90
18721;DHT22;9489;50.948;3.114;2023-04-03T07:52:48;13.20;99.90
18721;DHT22;9489;50.948;3.114;2023-04-03T07:55:14;13.30;99.90
18721;DHT22;9489;50.948;3.114;2023-04-03T07:57:40;13.70;99.90
18721;DHT22;9489;50.948;3.114;2023-04-03T08:00:07;13.90;99.90
18721;DHT22;9489;50.948;3.114;2023-04-03T08:02:32;14.20;99.90
18721;DHT22;9489;50.948;3.114;2023-04-03T08:04:58;14.30;99.90
18721;DHT22;9489;50.948;3.114;2023-04-03T08:07:24;14.50;99.90
18721;DHT22;9489;50.948;3.114;2023-04-03T08:09:50;14.60;99.90
18721;DHT22;9489;50.948;3.114;2023-04-03T08:12:16;14.40;99.90
18721;DHT22;9489;50.948;3.114;2023-04-03T08:14:42;15.10;99.90
18721;DHT22;9489;50.948;3.114;2023-04-03T08:17:09;15.20;99.90
18721;DHT22;9489;50.948;3.114;2023-04-03T08:19:37;15.10;99.90
18721;DHT22;9489;50.948;3.114;2023-04-03T08:22:03;15.70;99.90
18721;DHT22;9489;50.948;3.114;2023-04-03T08:24:30;16.10;99.90
18721;DHT22;9489;50.948;3.114;2023-04-03T08:26:56;16.70;99.90
18721;DHT22;9489;50.948;3.114;2023-04-03T08:29:22;16.60;99.90
18721;DHT22;9489;50.948;3.114;2023-04-03T08:31:47;16.30;99.90
18721;DHT22;9489;50.948;3.114;2023-04-03T08:34:15;16.30;99.90
18721;DHT22;9489;50.948;3.114;2023-04-03T08:36:40;16.10;99.90
18721;DHT22;9489;50.948;3.114;2023-04-03T08:39:06;16.00;99.90
18721;DHT22;9489;50.948;3.114;2023-04-03T08:41:33;15.90;99.30
18721;DHT22;9489;50.948;3.114;2023-04-03T08:44:04;15.70;99.90
18721;DHT22;9489;50.948;3.114;2023-04-03T08:46:52;15.70;99.90
18721;DHT22;9489;50.948;3.114;2023-04-03T08:49:48;15.80;99.50
18721;DHT22;9489;50.948;3.114;2023-04-03T08:55:00;16.20;99.90
18721;DHT22;9489;50.948;3.114;2023-04-03T08:57:33;16.60;98.90
18721;DHT22;9489;50.948;3.114;2023-04-03T09:00:05;17.00;98.10
18721;DHT22;9489;50.948;3.114;2023-04-03T09:02:49;17.10;98.30
18721;DHT22;9489;50.948;3.114;2023-04-03T09:05:41;17.50;96.90
18721;DHT22;9489;50.948;3.114;2023-04-03T09:08:12;17.70;96.50
18721;DHT22;9489;50.948;3.114;2023-04-03T09:10:40;18.20;94.50
18721;DHT22;9489;50.948;3.114;2023-04-03T09:13:14;17.80;94.30
18721;DHT22;9489;50.948;3.114;2023-04-03T09:15:44;18.30;92.60
18721;DHT22;9489;50.948;3.114;2023-04-03T09:18:32;18.50;93.40
18721;DHT22;9489;50.948;3.114;2023-04-03T09:23:48;18.90;93.00
18721;DHT22;9489;50.948;3.114;2023-04-03T09:29:07;18.30;91.50
18721;DHT22;9489;50.948;3.114;2023-04-03T09:31:42;18.30;92.00
18721;DHT22;9489;50.948;3.114;2023-04-03T09:34:17;18.70;92.00
18721;DHT22;9489;50.948;3.114;2023-04-03T09:36:49;19.10;92.10
18721;DHT22;9489;50.948;3.114;2023-04-03T09:39:20;19.60;90.60
18721;DHT22;9489;50.948;3.114;2023-04-03T09:41:59;19.80;89.30
18721;DHT22;9489;50.948;3.114;2023-04-03T09:44:36;19.30;88.70
18721;DHT22;9489;50.948;3.114;2023-04-03T09:49:49;19.80;88.30
18721;DHT22;9489;50.948;3.114;2023-04-03T09:52:23;19.10;89.70
18721;DHT22;9489;50.948;3.114;2023-04-03T09:54:48;18.50;88.90
18721;DHT22;9489;50.948;3.114;2023-04-03T09:57:14;18.20;90.80
18721;DHT22;9489;50.948;3.114;2023-04-03T10:00:00;18.50;91.00
18721;DHT22;9489;50.948;3.114;2023-04-03T10:04:58;19.30;90.50
18721;DHT22;9489;50.948;3.114;2023-04-03T10:07:35;19.90;86.80
18721;DHT22;9489;50.948;3.114;2023-04-03T10:12:42;20.30;83.70
18721;DHT22;9489;50.948;3.114;2023-04-03T10:15:20;20.50;82.10
18721;DHT22;9489;50.948;3.114;2023-04-03T10:17:57;20.20;80.30
18721;DHT22;9489;50.948;3.114;2023-04-03T10:20:43;20.70;78.40
18721;DHT22;9489;50.948;3.114;2023-04-03T10:42:32;20.70;70.60
18721;DHT22;9489;50.948;3.114;2023-04-03T10:48:15;21.30;67.90
18721;DHT22;9489;50.948;3.114;2023-04-03T10:53:51;21.20;68.40
18721;DHT22;9489;50.948;3.114;2023-04-03T10:56:39;21.30;68.50
18721;DHT22;9489;50.948;3.114;2023-04-03T11:02:00;21.80;68.20
18721;DHT22;9489;50.948;3.114;2023-04-03T11:04:30;22.40;67.90
18721;DHT22;9489;50.948;3.114;2023-04-03T11:07:04;22.70;67.40
18721;DHT22;9489;50.948;3.114;2023-04-03T11:09:35;22.20;66.10
18721;DHT22;9489;50.948;3.114;2023-04-03T11:14:43;22.80;65.90
18721;DHT22;9489;50.948;3.114;2023-04-03T11:19:49;23.30;61.80
18721;DHT22;9489;50.948;3.114;2023-04-03T11:22:30;23.50;59.70
18721;DHT22;9489;50.948;3.114;2023-04-03T11:25:19;23.20;58.80
18721;DHT22;9489;50.948;3.114;2023-04-03T11:30:23;22.70;57.80
18721;DHT22;9489;50.948;3.114;2023-04-03T11:35:34;22.90;58.70
18721;DHT22;9489;50.948;3.114;2023-04-03T11:38:02;23.60;57.30
18721;DHT22;9489;50.948;3.114;2023-04-03T11:40:33;23.10;56.00
18721;DHT22;9489;50.948;3.114;2023-04-03T11:45:27;24.40;55.20
18721;DHT22;9489;50.948;3.114;2023-04-03T11:50:41;24.70;54.30
18721;DHT22;9489;50.948;3.114;2023-04-03T12:16:30;24.00;50.90
18721;DHT22;9489;50.948;3.114;2023-04-03T12:19:33;24.20;51.60
18721;DHT22;9489;50.948;3.114;2023-04-03T12:22:04;24.20;50.90
18721;DHT22;9489;50.948;3.114;2023-04-03T12:24:38;23.70;50.90
18721;DHT22;9489;50.948;3.114;2023-04-03T12:27:23;23.90;51.40
18721;DHT22;9489;50.948;3.114;2023-04-03T12:30:03;23.20;50.70
18721;DHT22;9489;50.948;3.114;2023-04-03T12:48:39;24.90;47.30
18721;DHT22;9489;50.948;3.114;2023-04-03T12:51:21;25.20;47.20
18721;DHT22;9489;50.948;3.114;2023-04-03T12:53:50;24.90;46.70
18721;DHT22;9489;50.948;3.114;2023-04-03T12:56:27;24.30;46.40
18721;DHT22;9489;50.948;3.114;2023-04-03T12:58:55;24.20;47.60
18721;DHT22;9489;50.948;3.114;2023-04-03T13:01:25;24.70;46.60
18721;DHT22;9489;50.948;3.114;2023-04-03T13:03:57;24.60;46.20
18721;DHT22;9489;50.948;3.114;2023-04-03T13:06:30;24.10;46.70
18721;DHT22;9489;50.948;3.114;2023-04-03T13:08:58;23.70;47.90
18721;DHT22;9489;50.948;3.114;2023-04-03T13:11:27;23.50;46.80
18721;DHT22;9489;50.948;3.114;2023-04-03T13:14:03;23.60;46.40
18721;DHT22;9489;50.948;3.114;2023-04-03T13:16:31;22.90;46.10
18721;DHT22;9489;50.948;3.114;2023-04-03T13:18:57;23.00;47.10
18721;DHT22;9489;50.948;3.114;2023-04-03T13:21:28;23.30;46.40
18721;DHT22;9489;50.948;3.114;2023-04-03T13:23:59;23.90;45.90
18721;DHT22;9489;50.948;3.114;2023-04-03T13:26:28;23.90;46.50
18721;DHT22;9489;50.948;3.114;2023-04-03T13:29:01;24.60;46.50
18721;DHT22;9489;50.948;3.114;2023-04-03T13:31:34;24.80;46.60
18721;DHT22;9489;50.948;3.114;2023-04-03T13:34:16;24.80;46.60
18721;DHT22;9489;50.948;3.114;2023-04-03T13:36:59;25.20;46.70
18721;DHT22;9489;50.948;3.114;2023-04-03T13:39:32;25.00;46.60
18721;DHT22;9489;50.948;3.114;2023-04-03T13:42:00;24.60;46.30
18721;DHT22;9489;50.948;3.114;2023-04-03T13:44:34;25.00;46.60
18721;DHT22;9489;50.948;3.114;2023-04-03T13:47:24;25.90;46.60
18721;DHT22;9489;50.948;3.114;2023-04-03T13:53:01;25.50;46.10
18721;DHT22;9489;50.948;3.114;2023-04-03T13:55:35;24.80;45.80
18721;DHT22;9489;50.948;3.114;2023-04-03T13:58:16;23.40;46.50
18721;DHT22;9489;50.948;3.114;2023-04-03T14:00:51;23.60;48.20
18721;DHT22;9489;50.948;3.114;2023-04-03T14:03:33;24.40;47.80
18721;DHT22;9489;50.948;3.114;2023-04-03T14:06:06;24.40;46.50
18721;DHT22;9489;50.948;3.114;2023-04-03T14:08:32;24.20;46.60
18721;DHT22;9489;50.948;3.114;2023-04-03T14:10:58;24.40;46.20
18721;DHT22;9489;50.948;3.114;2023-04-03T14:13:23;24.40;45.80
18721;DHT22;9489;50.948;3.114;2023-04-03T14:15:49;24.80;44.80
18721;DHT22;9489;50.948;3.114;2023-04-03T14:18:18;24.20;45.50
18721;DHT22;9489;50.948;3.114;2023-04-03T14:20:44;22.80;46.70
18721;DHT22;9489;50.948;3.114;2023-04-03T14:23:10;23.00;46.50
18721;DHT22;9489;50.948;3.114;2023-04-03T14:25:36;23.50;46.80
18721;DHT22;9489;50.948;3.114;2023-04-03T14:28:17;22.80;45.60
18721;DHT22;9489;50.948;3.114;2023-04-03T14:30:44;22.10;47.90
18721;DHT22;9489;50.948;3.114;2023-04-03T14:33:15;22.70;47.50
18721;DHT22;9489;50.948;3.114;2023-04-03T14:35:41;22.00;47.10
18721;DHT22;9489;50.948;3.114;2023-04-03T14:38:26;21.90;48.90
18721;DHT22;9489;50.948;3.114;2023-04-03T14:40:52;21.60;49.00
18721;DHT22;9489;50.948;3.114;2023-04-03T14:43:19;21.50;49.50
18721;DHT22;9489;50.948;3.114;2023-04-03T14:45:46;21.40;50.00
18721;DHT22;9489;50.948;3.114;2023-04-03T14:48:21;21.00;50.00
18721;DHT22;9489;50.948;3.114;2023-04-03T14:50:48;20.50;50.80
18721;DHT22;9489;50.948;3.114;2023-04-03T14:53:14;20.30;50.50
18721;DHT22;9489;50.948;3.114;2023-04-03T14:55:43;19.70;50.30
18721;DHT22;9489;50.948;3.114;2023-04-03T14:58:13;19.30;50.80
18721;DHT22;9489;50.948;3.114;2023-04-03T15:00:39;18.70;51.00
18721;DHT22;9489;50.948;3.114;2023-04-03T15:03:05;18.50;52.20
18721;DHT22;9489;50.948;3.114;2023-04-03T15:05:30;18.20;52.00
18721;DHT22;9489;50.948;3.114;2023-04-03T15:07:58;17.90;52.20
18721;DHT22;9489;50.948;3.114;2023-04-03T15:10:28;17.40;52.50
18721;DHT22;9489;50.948;3.114;2023-04-03T15:12:54;17.20;53.00
18721;DHT22;9489;50.948;3.114;2023-04-03T15:15:21;17.00;52.80
18721;DHT22;9489;50.948;3.114;2023-04-03T15:17:51;16.80;53.70
18721;DHT22;9489;50.948;3.114;2023-04-03T15:20:21;16.30;53.80
18721;DHT22;9489;50.948;3.114;2023-04-03T15:22:48;16.00;55.20
18721;DHT22;9489;50.948;3.114;2023-04-03T15:25:14;15.70;55.30
18721;DHT22;9489;50.948;3.114;2023-04-03T15:27:40;15.70;55.90
18721;DHT22;9489;50.948;3.114;2023-04-03T15:30:10;15.60;56.00
18721;DHT22;9489;50.948;3.114;2023-04-03T15:32:36;15.60;56.10
18721;DHT22;9489;50.948;3.114;2023-04-03T15:35:02;15.60;55.70
18721;DHT22;9489;50.948;3.114;2023-04-03T15:37:28;15.40;55.00
18721;DHT22;9489;50.948;3.114;2023-04-03T15:39:53;15.50;56.00
18721;DHT22;9489;50.948;3.114;2023-04-03T15:42:19;15.40;56.40
18721;DHT22;9489;50.948;3.114;2023-04-03T15:44:45;15.40;56.30
18721;DHT22;9489;50.948;3.114;2023-04-03T15:47:10;15.10;56.30
18721;DHT22;9489;50.948;3.114;2023-04-03T15:49:36;15.30;57.60
18721;DHT22;9489;50.948;3.114;2023-04-03T15:52:02;15.20;56.80
18721;DHT22;9489;50.948;3.114;2023-04-03T15:54:27;15.00;56.10
18721;DHT22;9489;50.948;3.114;2023-04-03T15:56:55;14.70;56.90
18721;DHT22;9489;50.948;3.114;2023-04-03T15:59:21;14.50;57.00
18721;DHT22;9489;50.948;3.114;2023-04-03T16:01:47;14.30;58.00
18721;DHT22;9489;50.948;3.114;2023-04-03T16:04:13;14.30;58.20
18721;DHT22;9489;50.948;3.114;2023-04-03T16:06:39;14.30;57.50
18721;DHT22;9489;50.948;3.114;2023-04-03T16:09:04;14.30;58.70
18721;DHT22;9489;50.948;3.114;2023-04-03T16:11:30;14.40;56.90
18721;DHT22;9489;50.948;3.114;2023-04-03T16:13:56;14.30;57.00
18721;DHT22;9489;50.948;3.114;2023-04-03T16:16:23;14.10;56.90
18721;DHT22;9489;50.948;3.114;2023-04-03T16:18:49;13.90;57.60
18721;DHT22;9489;50.948;3.114;2023-04-03T16:21:16;13.80;58.90
18721;DHT22;9489;50.948;3.114;2023-04-03T16:23:42;13.70;59.00
18721;DHT22;9489;50.948;3.114;2023-04-03T16:26:09;13.70;60.20
18721;DHT22;9489;50.948;3.114;2023-04-03T16:28:35;13.70;59.00
18721;DHT22;9489;50.948;3.114;2023-04-03T16:31:01;13.60;59.40
18721;DHT22;9489;50.948;3.114;2023-04-03T16:33:27;13.60;59.20
18721;DHT22;9489;50.948;3.114;2023-04-03T16:35:53;13.30;58.70
18721;DHT22;9489;50.948;3.114;2023-04-03T16:38:19;13.20;60.90
18721;DHT22;9489;50.948;3.114;2023-04-03T16:40:45;13.20;61.20
18721;DHT22;9489;50.948;3.114;2023-04-03T16:43:11;13.10;61.80
18721;DHT22;9489;50.948;3.114;2023-04-03T16:45:37;13.00;61.70
18721;DHT22;9489;50.948;3.114;2023-04-03T16:48:03;13.00;60.60
18721;DHT22;9489;50.948;3.114;2023-04-03T16:50:28;12.90;59.80
18721;DHT22;9489;50.948;3.114;2023-04-03T16:52:54;12.90;59.50
18721;DHT22;9489;50.948;3.114;2023-04-03T16:55:20;12.80;59.90
18721;DHT22;9489;50.948;3.114;2023-04-03T16:57:46;12.60;59.20
18721;DHT22;9489;50.948;3.114;2023-04-03T17:00:12;12.50;59.80
18721;DHT22;9489;50.948;3.114;2023-04-03T17:02:39;12.40;60.00
18721;DHT22;9489;50.948;3.114;2023-04-03T17:05:04;12.40;59.30
18721;DHT22;9489;50.948;3.114;2023-04-03T17:07:30;12.30;60.30
18721;DHT22;9489;50.948;3.114;2023-04-03T17:09:56;12.30;60.70
18721;DHT22;9489;50.948;3.114;2023-04-03T17:12:22;12.30;61.50
18721;DHT22;9489;50.948;3.114;2023-04-03T17:14:47;12.40;62.20
18721;DHT22;9489;50.948;3.114;2023-04-03T17:17:14;12.20;60.30
18721;DHT22;9489;50.948;3.114;2023-04-03T17:19:40;11.90;60.20
18721;DHT22;9489;50.948;3.114;2023-04-03T17:22:07;11.80;59.80
18721;DHT22;9489;50.948;3.114;2023-04-03T17:24:34;11.70;60.60
18721;DHT22;9489;50.948;3.114;2023-04-03T17:27:00;11.60;60.80
18721;DHT22;9489;50.948;3.114;2023-04-03T17:29:25;11.60;60.90
18721;DHT22;9489;50.948;3.114;2023-04-03T17:31:51;11.60;61.40
18721;DHT22;9489;50.948;3.114;2023-04-03T17:34:17;11.40;61.80
18721;DHT22;9489;50.948;3.114;2023-04-03T17:36:42;11.40;61.40
18721;DHT22;9489;50.948;3.114;2023-04-03T17:39:08;11.40;62.10
18721;DHT22;9489;50.948;3.114;2023-04-03T17:41:34;11.40;63.10
18721;DHT22;9489;50.948;3.114;2023-04-03T17:44:00;11.30;64.00
18721;DHT22;9489;50.948;3.114;2023-04-03T17:46:25;11.30;65.50
18721;DHT22;9489;50.948;3.114;2023-04-03T17:48:51;11.20;67.40
18721;DHT22;9489;50.948;3.114;2023-04-03T17:51:19;11.20;68.60